Time;durP1;ratioP1;P1;durP2;ratioP2;P2;SDS_P1;SDS_P2;PMS_P1;PMS_P2;Temp;Humidity;BMP_temperature;BMP_pressure;BME280_temperature;BME280_humidity;BME280_pressure;Samples;Min_cycle;Max_cycle;Signal;HPM_P1;HPM_P2
2021/01/03 00:00:22;;;;;;;57.73;33.83;;;7.30;99.90;;;7.51;81.73;101376.25;5071827;28;20052;-75
2021/01/03 00:02:51;;;;;;;63.63;36.73;;;7.50;99.90;;;6.51;81.36;101194.00;5071875;28;20044;-75
2021/01/03 00:05:26;;;;;;;59.30;34.90;;;7.50;99.90;;;7.78;80.97;101405.66;5071880;28;20041;-76
2021/01/03 00:07:54;;;;;;;61.10;36.53;;;7.60;99.90;;;7.83;80.62;101404.00;5070334;28;20056;-76
2021/01/03 00:10:24;;;;;;;63.33;36.83;;;7.60;99.90;;;7.85;80.69;101402.28;5071830;28;20048;-76
2021/01/03 00:12:51;;;;;;;67.88;37.42;;;7.70;99.90;;;7.94;80.47;101412.94;5071353;28;20127;-75
2021/01/03 00:15:22;;;;;;;63.07;35.73;;;7.80;99.90;;;7.97;80.27;101413.00;5071303;28;20041;-76
2021/01/03 00:17:52;;;;;;;64.22;36.80;;;7.80;99.90;;;8.00;80.22;101412.13;5075418;28;20056;-75
2021/01/03 00:20:25;;;;;;;65.33;36.43;;;7.90;99.90;;;8.02;79.71;101411.31;5074947;28;20052;-75
2021/01/03 00:22:53;;;;;;;65.20;37.37;;;7.90;99.90;;;8.01;79.89;101422.69;5075436;28;20059;-75
2021/01/03 00:25:25;;;;;;;60.23;36.43;;;7.90;99.90;;;8.06;79.41;101409.59;5075156;28;20040;-75
2021/01/03 00:27:53;;;;;;;67.38;38.58;;;7.90;99.90;;;8.11;79.37;101416.69;5075397;28;20052;-75
2021/01/03 00:30:24;;;;;;;64.83;38.23;;;7.90;99.90;;;8.06;79.26;101407.84;5075318;28;20033;-75
2021/01/03 00:32:52;;;;;;;59.03;35.30;;;7.90;99.90;;;8.06;79.47;101412.22;5073816;28;20075;-76
2021/01/03 00:35:26;;;;;;;65.75;37.20;;;7.90;99.90;;;8.02;78.89;101413.94;5074522;28;20072;-75
2021/01/03 00:37:53;;;;;;;58.57;35.83;;;7.90;99.90;;;7.89;79.37;101412.00;5074680;28;20040;-75
2021/01/03 00:40:23;;;;;;;57.53;35.63;;;7.90;99.90;;;7.66;79.73;101404.59;5073380;28;20526;-75
2021/01/03 00:42:50;;;;;;;57.07;34.80;;;7.70;99.90;;;7.74;79.65;101410.88;5074416;28;20051;-75
2021/01/03 00:45:18;;;;;;;59.50;34.47;;;7.60;99.90;;;7.45;79.94;101415.66;5074766;28;20286;-74
2021/01/03 00:47:46;;;;;;;62.20;35.50;;;7.50;99.90;;;7.47;80.38;101413.91;5073417;28;20056;-76
2021/01/03 00:50:14;;;;;;;64.53;37.20;;;7.40;99.90;;;7.36;80.87;101412.88;5073329;28;20500;-74
2021/01/03 00:52:42;;;;;;;64.70;36.40;;;7.30;99.90;;;7.43;80.65;101416.50;5074303;28;20051;-76
2021/01/03 00:55:12;;;;;;;63.73;37.53;;;7.30;99.90;;;7.07;81.12;101420.25;5074197;28;20055;-75
2021/01/03 00:57:40;;;;;;;68.30;37.67;;;7.20;99.90;;;7.00;81.64;101413.13;5074524;28;20048;-74
2021/01/03 01:00:12;;;;;;;69.03;37.30;;;7.00;99.90;;;7.06;81.66;101386.03;5074130;28;20052;-75
2021/01/03 01:02:40;;;;;;;72.87;39.93;;;7.10;99.90;;;7.20;81.17;101413.47;5072902;28;20057;-74
2021/01/03 01:05:09;;;;;;;68.40;38.27;;;7.10;99.90;;;6.91;81.76;101412.91;5074604;28;20122;-75
2021/01/03 01:07:36;;;;;;;71.97;40.80;;;6.90;99.90;;;7.04;81.50;101406.16;5074217;28;20481;-75
2021/01/03 01:10:07;;;;;;;76.77;39.13;;;6.90;99.90;;;7.12;81.64;101408.06;5072907;28;20070;-75
2021/01/03 01:12:35;;;;;;;81.60;43.50;;;7.00;99.90;;;7.07;81.66;101406.19;5073936;28;20032;-75
2021/01/03 01:15:05;;;;;;;82.83;42.53;;;7.00;99.90;;;7.18;81.96;101400.28;5074048;28;20090;-75
2021/01/03 01:17:32;;;;;;;76.72;41.53;;;7.10;99.90;;;7.29;81.72;101397.84;5073837;28;20490;-76
2021/01/03 01:20:00;;;;;;;77.00;40.30;;;7.20;99.90;;;7.12;81.34;101365.97;5073739;28;20058;-74
2021/01/03 01:22:28;;;;;;;80.67;41.83;;;7.30;99.90;;;7.27;81.04;101399.56;5073727;28;20135;-75
2021/01/03 01:24:55;;;;;;;80.00;41.87;;;7.20;99.90;;;7.33;81.24;101404.94;5073485;28;20137;-75
2021/01/03 01:27:23;;;;;;;81.33;41.53;;;7.20;99.90;;;7.22;81.48;101433.66;5072854;28;20044;-75
2021/01/03 01:29:50;;;;;;;74.87;40.27;;;7.10;99.90;;;7.25;81.28;101407.44;5073760;28;20139;-75
2021/01/03 01:32:18;;;;;;;84.03;41.90;;;7.20;99.90;;;7.18;81.19;101404.66;5073441;28;20091;-74
2021/01/03 01:34:46;;;;;;;77.17;40.73;;;7.10;99.90;;;7.15;81.22;101409.84;5073367;28;20060;-75
2021/01/03 01:37:13;;;;;;;77.77;38.83;;;7.10;99.90;;;7.18;80.97;101413.41;5073152;28;20048;-75
2021/01/03 01:39:40;;;;;;;73.03;36.90;;;7.10;99.90;;;6.95;80.95;101390.22;5073305;28;20045;-75
2021/01/03 01:42:08;;;;;;;83.47;40.90;;;7.00;99.90;;;6.31;82.78;101396.81;5073583;28;20078;-75
2021/01/03 01:44:36;;;;;;;79.40;38.67;;;6.50;99.90;;;6.63;82.93;101410.63;5073710;28;20562;-75
2021/01/03 01:47:11;;;;;;;77.07;37.73;;;6.60;99.90;;;6.07;83.03;101409.44;5072166;28;20273;-75
2021/01/03 01:49:43;;;;;;;74.57;37.20;;;6.20;99.90;;;6.14;84.28;101415.69;5072235;28;20734;-75
2021/01/03 01:52:13;;;;;;;73.43;37.33;;;6.10;99.90;;;6.23;84.10;101401.00;5073139;28;20040;-75
2021/01/03 01:54:46;;;;;;;70.47;36.22;;;6.20;99.90;;;6.33;83.67;101388.97;5073062;28;20040;-75
2021/01/03 01:57:21;;;;;;;69.13;35.33;;;6.40;99.90;;;6.58;83.18;101420.13;5072971;28;20068;-75
2021/01/03 01:59:59;;;;;;;68.47;35.13;;;6.50;99.90;;;6.28;82.81;101388.88;5073245;28;20049;-75
2021/01/03 02:02:33;;;;;;;69.70;36.37;;;6.40;99.90;;;6.66;82.62;101417.69;5073180;28;20040;-75
2021/01/03 02:05:11;;;;;;;68.00;34.43;;;6.50;99.90;;;6.78;82.26;101412.66;5073116;28;20448;-75
2021/01/03 02:07:48;;;;;;;65.70;34.00;;;6.70;99.90;;;6.86;81.75;101416.31;5073099;28;20040;-75
2021/01/03 02:10:22;;;;;;;62.13;34.23;;;6.80;99.90;;;6.69;81.55;101371.31;5071745;28;20055;-75
2021/01/03 02:13:10;;;;;;;61.77;32.87;;;6.90;99.90;;;7.06;81.20;101426.38;5072764;28;20044;-75
2021/01/03 02:15:39;;;;;;;61.27;33.37;;;7.00;99.90;;;7.18;80.74;101420.44;5072583;28;20589;-76
2021/01/03 02:18:10;;;;;;;61.70;33.88;;;7.10;99.90;;;7.06;80.42;101425.47;5072922;28;20202;-76
2021/01/03 02:20:59;;;;;;;64.47;33.58;;;7.10;99.90;;;7.25;80.29;101427.59;5072614;28;20040;-75
2021/01/03 02:23:39;;;;;;;59.87;34.03;;;7.10;99.90;;;7.31;79.70;101417.19;5071164;28;20429;-74
2021/01/03 02:26:09;;;;;;;64.00;34.30;;;7.20;99.90;;;7.29;79.26;101424.16;5072550;28;20074;-76
2021/01/03 02:28:41;;;;;;;66.43;34.33;;;7.20;99.90;;;7.33;79.15;101415.47;5072660;28;20044;-75
2021/01/03 02:31:09;;;;;;;61.90;33.77;;;7.20;99.90;;;7.15;79.19;101396.72;5071344;28;20052;-76
2021/01/03 02:33:41;;;;;;;59.77;33.50;;;7.20;99.90;;;7.22;79.21;101402.09;5072506;28;20048;-75
2021/01/03 02:36:16;;;;;;;62.80;33.60;;;7.30;99.90;;;7.18;78.88;101378.38;5072537;28;20037;-76
2021/01/03 02:38:51;;;;;;;58.53;32.87;;;7.30;99.90;;;7.53;78.94;101423.69;5072080;28;20071;-75
2021/01/03 02:41:20;;;;;;;56.40;31.27;;;7.40;99.90;;;7.44;78.66;101421.78;5072538;28;20048;-75
2021/01/03 02:43:47;;;;;;;60.43;33.20;;;7.40;99.90;;;7.40;78.73;101417.31;5072564;28;20105;-75
2021/01/03 02:46:15;;;;;;;58.57;32.07;;;7.40;99.90;;;7.50;78.61;101423.63;5072421;28;20550;-75
2021/01/03 02:48:42;;;;;;;61.00;32.10;;;7.40;99.90;;;7.44;78.55;101429.69;5071093;28;20044;-75
2021/01/03 02:51:10;;;;;;;55.33;31.60;;;7.40;99.90;;;7.42;78.66;101431.41;5072371;28;20414;-76
2021/01/03 02:53:38;;;;;;;56.83;30.37;;;7.30;99.90;;;7.27;77.79;101434.66;5072383;28;20046;-75
2021/01/03 02:56:06;;;;;;;58.17;31.27;;;7.30;99.90;;;7.12;78.65;101420.34;5071984;28;20044;-76
2021/01/03 02:58:34;;;;;;;50.37;30.23;;;7.10;99.90;;;7.08;78.73;101432.53;5072040;28;20480;-76
2021/01/03 03:01:01;;;;;;;62.57;32.03;;;7.10;99.90;;;7.22;78.33;101433.66;5072007;28;20051;-75
2021/01/03 03:03:29;;;;;;;53.63;31.40;;;7.10;99.90;;;7.12;78.64;101428.22;5072274;28;20037;-75
2021/01/03 03:05:56;;;;;;;57.77;30.00;;;7.00;99.90;;;6.68;78.66;101398.44;5070888;28;20048;-75
2021/01/03 03:08:24;;;;;;;53.83;30.23;;;6.90;99.90;;;7.00;78.86;101428.00;5070952;28;20087;-75
2021/01/03 03:10:52;;;;;;;57.00;31.90;;;6.90;99.90;;;6.89;79.22;101425.16;5104676;28;20064;-75
2021/01/03 03:13:19;;;;;;;55.10;32.20;;;6.80;99.90;;;6.96;78.88;101427.06;5071754;28;20135;-75
2021/01/03 03:15:48;;;;;;;59.17;32.43;;;6.80;99.90;;;7.05;78.75;101423.69;5072045;28;20053;-74
2021/01/03 03:18:15;;;;;;;57.50;32.87;;;6.90;99.90;;;6.91;78.98;101425.19;5072082;28;20064;-76
2021/01/03 03:20:42;;;;;;;61.47;34.03;;;6.90;99.90;;;6.95;79.33;101425.28;5072109;28;20048;-75
2021/01/03 03:23:10;;;;;;;60.67;34.50;;;6.90;99.90;;;6.82;79.29;101393.44;5071421;28;20060;-75
2021/01/03 03:25:38;;;;;;;60.63;33.60;;;6.90;99.90;;;6.97;79.30;101420.03;5072077;28;20527;-76
2021/01/03 03:28:06;;;;;;;60.63;33.67;;;6.90;99.90;;;6.95;79.26;101420.00;5072032;28;20053;-75
2021/01/03 03:30:33;;;;;;;63.17;34.30;;;6.80;99.90;;;7.03;79.68;101422.78;5070726;28;20064;-75
2021/01/03 03:33:02;;;;;;;64.97;34.73;;;6.90;99.90;;;6.97;79.06;101404.25;5070646;28;20068;-75
2021/01/03 03:35:35;;;;;;;66.17;35.73;;;7.00;99.90;;;7.04;79.05;101424.56;5071613;28;20032;-76
2021/01/03 03:38:06;;;;;;;69.73;34.37;;;7.00;99.90;;;6.80;79.12;101397.78;5071765;28;20044;-75
2021/01/03 03:40:33;;;;;;;63.13;33.30;;;7.00;99.90;;;7.06;79.28;101417.59;5071685;28;20051;-76
2021/01/03 03:43:01;;;;;;;66.17;34.67;;;6.90;99.90;;;7.05;79.16;101416.69;5071852;28;20130;-75
2021/01/03 03:45:28;;;;;;;63.27;32.33;;;7.00;99.90;;;6.77;79.25;101396.00;5071770;28;20049;-75
2021/01/03 03:47:55;;;;;;;64.83;33.37;;;6.90;99.90;;;6.93;79.59;101416.47;5071894;28;20063;-75
2021/01/03 03:50:25;;;;;;;64.33;33.80;;;6.90;99.90;;;6.76;79.34;101396.84;5070501;28;20049;-75
2021/01/03 03:52:52;;;;;;;64.83;33.93;;;6.80;99.90;;;6.76;79.53;101406.47;5074320;28;20049;-76
2021/01/03 03:55:20;;;;;;;70.43;35.80;;;6.80;99.90;;;6.72;79.74;101418.69;5075191;28;20052;-76
2021/01/03 03:57:47;;;;;;;69.13;35.30;;;6.80;99.90;;;6.76;80.45;101424.88;5073927;28;20079;-74
2021/01/03 04:00:18;;;;;;;71.97;36.47;;;6.70;99.90;;;6.54;80.61;101378.03;5075719;28;20048;-75
2021/01/03 04:02:46;;;;;;;71.77;35.33;;;6.70;99.90;;;6.88;80.25;101422.50;5075505;28;20126;-76
2021/01/03 04:05:17;;;;;;;60.93;31.77;;;6.80;99.90;;;6.82;80.54;101419.75;5075432;28;20045;-76
2021/01/03 04:07:45;;;;;;;;;;;6.70;99.90;;;6.78;80.17;101428.44;5075603;28;20481;-75
2021/01/03 04:10:14;;;;;;;58.07;30.60;;;6.70;99.90;;;6.79;80.34;101420.59;5075052;28;19924;-74
2021/01/03 04:12:41;;;;;;;60.33;33.67;;;6.70;99.90;;;6.64;80.18;101420.25;5074897;28;20601;-75
2021/01/03 04:15:15;;;;;;;57.07;31.67;;;6.70;99.90;;;6.82;80.27;101430.25;5074955;28;20152;-75
2021/01/03 04:17:44;;;;;;;54.97;30.53;;;6.70;99.90;;;6.70;80.33;101430.00;5075181;28;20451;-75
2021/01/03 04:20:17;;;;;;;56.80;31.00;;;6.70;99.90;;;6.72;80.30;101420.41;5074893;28;20114;-76
2021/01/03 04:22:46;;;;;;;56.93;31.10;;;6.70;99.90;;;6.64;80.54;101424.66;5073825;28;20053;-75
2021/01/03 04:25:16;;;;;;;57.67;32.63;;;6.60;99.90;;;6.45;81.23;101422.47;5074639;28;20064;-74
2021/01/03 04:27:43;;;;;;;65.50;34.50;;;6.40;99.90;;;6.49;81.59;101425.22;5074808;28;20101;-75
2021/01/03 04:30:14;;;;;;;55.43;32.60;;;6.40;99.90;;;6.61;81.47;101445.59;5074983;28;20294;-75
2021/01/03 04:32:41;;;;;;;58.97;32.30;;;6.60;99.90;;;6.53;81.06;101384.13;5073708;28;20482;-76
2021/01/03 04:35:10;;;;;;;61.47;34.57;;;6.70;99.90;;;6.68;80.98;101402.84;5074614;28;20036;-75
2021/01/03 04:37:38;;;;;;;65.83;34.70;;;6.70;99.90;;;6.81;80.40;101423.25;5074794;28;20060;-76
2021/01/03 04:40:15;;;;;;;60.90;32.93;;;6.70;99.90;;;6.69;80.93;101399.34;5074544;28;20059;-75
2021/01/03 04:42:43;;;;;;;62.17;33.67;;;6.80;99.90;;;6.94;80.47;101436.66;5074538;28;20045;-76
2021/01/03 04:45:18;;;;;;;65.40;34.47;;;6.80;99.90;;;6.92;80.06;101432.22;5074354;28;20052;-75
2021/01/03 04:47:56;;;;;;;63.80;33.30;;;6.90;99.90;;;6.90;80.41;101439.19;5074505;28;20401;-76
2021/01/03 04:51:04;;;;;;;69.93;34.73;;;6.80;99.90;;;6.67;80.58;101436.13;5074575;28;20113;-75
2021/01/03 04:53:43;;;;;;;63.20;34.37;;;6.70;99.90;;;6.74;80.97;101438.00;5074544;28;20440;-76
2021/01/03 04:56:24;;;;;;;63.47;32.33;;;6.60;99.90;;;6.86;80.90;101442.59;5074558;28;20129;-75
2021/01/03 04:59:09;;;;;;;63.77;32.40;;;6.70;99.90;;;6.68;81.08;101434.38;5074176;28;20098;-75
2021/01/03 05:02:25;;;;;;;62.73;33.23;;;6.60;99.90;;;6.70;81.02;101437.91;5074014;28;20509;-74
2021/01/03 05:05:11;;;;;;;63.63;32.30;;;6.60;99.90;;;6.65;81.09;101435.19;5074052;28;20040;-75
2021/01/03 05:07:42;;;;;;;63.33;32.07;;;6.60;99.90;;;6.66;81.31;101426.44;5074080;28;20052;-75
2021/01/03 05:10:16;;;;;;;58.47;31.93;;;6.60;99.90;;;6.54;80.92;101407.81;5073065;28;20049;-75
2021/01/03 05:13:01;;;;;;;67.03;34.37;;;6.60;99.90;;;6.05;80.82;101408.50;5073987;28;20090;-76
2021/01/03 05:15:32;;;;;;;64.77;32.77;;;6.70;99.90;;;6.72;80.85;101434.44;5073849;28;20123;-75
2021/01/03 05:18:00;;;;;;;;;;;6.70;99.90;;;6.65;80.89;101405.38;5074666;28;20154;-75
2021/01/03 05:20:29;;;;;;;65.97;34.17;;;6.70;99.90;;;6.85;80.67;101438.22;5073786;28;19966;-75
2021/01/03 05:23:14;;;;;;;64.13;33.17;;;6.80;99.90;;;6.91;80.50;101439.22;5073726;28;20517;-76
2021/01/03 05:25:44;;;;;;;64.23;31.67;;;6.80;99.90;;;6.86;80.39;101433.00;5073587;28;20041;-76
2021/01/03 05:28:20;;;;;;;64.55;33.50;;;6.80;99.90;;;6.93;80.02;101436.63;5073661;28;20051;-76
2021/01/03 05:30:48;;;;;;;64.23;33.67;;;6.80;99.90;;;6.97;79.79;101462.09;5073602;28;20055;-76
2021/01/03 05:33:28;;;;;;;68.63;34.20;;;6.90;99.90;;;7.06;79.61;101443.91;5072474;28;20052;-75
2021/01/03 05:35:56;;;;;;;64.53;34.25;;;6.90;99.90;;;7.08;79.63;101443.03;5073540;28;20036;-75
2021/01/03 05:38:38;;;;;;;60.87;33.23;;;7.00;99.90;;;7.09;79.52;101430.78;5072399;28;20055;-76
2021/01/03 05:41:14;;;;;;;63.37;31.70;;;7.00;99.90;;;7.02;78.92;101428.91;5073598;28;20113;-75
2021/01/03 05:43:44;;;;;;;60.27;30.73;;;7.00;99.90;;;7.06;79.01;101439.53;5073415;28;20127;-75
2021/01/03 05:46:22;;;;;;;65.73;32.43;;;7.00;99.90;;;7.03;78.96;101434.19;5073552;28;20036;-76
2021/01/03 05:49:02;;;;;;;62.83;32.97;;;7.00;99.90;;;4.55;78.30;101021.34;5073151;28;20044;-74
2021/01/03 05:51:40;;;;;;;66.90;32.83;;;7.00;99.90;;;6.25;81.09;101441.31;5073494;28;20079;-75
2021/01/03 05:54:12;;;;;;;65.87;34.00;;;6.30;99.90;;;6.43;81.03;101445.25;5073371;28;20106;-75
2021/01/03 05:56:42;;;;;;;73.87;35.93;;;6.40;99.90;;;6.18;81.96;101442.06;5073149;28;20055;-74
2021/01/03 05:59:16;;;;;;;70.70;35.10;;;6.20;99.90;;;6.42;81.92;101451.31;5073266;28;20037;-75
2021/01/03 06:01:44;;;;;;;73.90;35.93;;;6.30;99.90;;;6.41;81.83;101460.06;5072958;28;20037;-76
2021/01/03 06:04:14;;;;;;;76.57;37.10;;;6.30;99.90;;;6.32;81.86;101445.88;5072931;28;20117;-75
2021/01/03 06:06:57;;;;;;;;;;;6.30;99.90;;;6.25;82.44;101462.34;5073281;28;20861;-75
2021/01/03 06:09:36;;;;;;;73.77;35.23;;;6.30;99.90;;;6.44;82.33;101471.53;5072825;28;19970;-76
2021/01/03 06:12:09;;;;;;;74.07;36.50;;;6.40;99.90;;;6.55;81.84;101463.88;5071492;28;20485;-75
2021/01/03 06:14:37;;;;;;;72.27;36.43;;;6.40;99.90;;;6.36;81.74;101423.19;5072580;28;20052;-75
2021/01/03 06:17:20;;;;;;;72.63;36.33;;;6.50;99.90;;;6.52;81.30;101442.78;5072386;28;20076;-75
2021/01/03 06:19:50;;;;;;;73.47;35.07;;;6.60;99.90;;;6.63;80.98;101451.78;5073243;28;20051;-76
2021/01/03 06:22:39;;;;;;;63.88;33.25;;;6.70;99.90;;;6.76;80.60;101467.84;5073155;28;20032;-75
2021/01/03 06:25:29;;;;;;;64.43;32.33;;;6.70;99.90;;;6.73;80.51;101466.88;5071231;28;20391;-75
2021/01/03 06:28:07;;;;;;;;;;;6.70;99.90;;;6.83;80.60;101474.13;5073147;28;20117;-76
2021/01/03 06:30:37;;;;;;;60.47;31.13;;;6.80;99.90;;;6.89;80.16;101480.38;5072510;28;19931;-74
2021/01/03 06:33:52;;;;;;;64.67;31.77;;;6.80;99.90;;;6.70;79.69;101440.53;5072749;28;20049;-76
2021/01/03 06:36:23;;;;;;;59.60;32.00;;;6.80;99.90;;;6.93;79.56;101476.06;5071306;28;20106;-76
2021/01/03 06:39:13;;;;;;;59.83;31.73;;;6.90;99.90;;;6.88;79.50;101477.72;5071316;28;20044;-75
2021/01/03 06:41:51;;;;;;;55.47;29.92;;;6.90;99.90;;;6.77;79.55;101495.03;5071248;28;20049;-74
2021/01/03 06:44:46;;;;;;;58.17;29.37;;;6.80;99.90;;;6.70;79.73;101479.94;5071164;28;20113;-74
2021/01/03 06:47:59;;;;;;;59.80;31.47;;;6.70;99.90;;;6.77;79.62;101493.28;5072451;28;20049;-75
2021/01/03 06:51:14;;;;;;;55.47;30.50;;;6.70;99.90;;;6.65;79.81;101513.16;5066659;28;20060;-75
2021/01/03 06:54:20;;;;;;;57.53;30.37;;;6.60;99.90;;;6.83;79.63;101509.16;5071173;28;20549;-75
2021/01/03 06:57:46;;;;;;;57.73;30.70;;;6.70;99.90;;;6.77;79.73;101500.28;5072303;28;20040;-76
2021/01/03 07:00:24;;;;;;;60.40;30.57;;;6.70;99.90;;;6.74;79.36;101511.59;5072297;28;20117;-76
2021/01/03 07:03:01;;;;;;;65.97;32.63;;;6.70;99.90;;;6.69;79.59;101494.88;5104905;28;20139;-76
2021/01/03 07:05:28;;;;;;;55.93;31.10;;;6.70;99.90;;;6.78;79.38;101509.91;5072278;28;20482;-76
2021/01/03 07:08:04;;;;;;;54.67;30.87;;;6.70;99.90;;;6.82;79.13;101507.41;5070951;28;20500;-76
2021/01/03 07:10:38;;;;;;;58.27;31.50;;;6.70;99.90;;;6.84;79.38;101510.06;5072047;28;20094;-76
2021/01/03 07:13:40;;;;;;;54.80;30.17;;;6.80;99.90;;;6.46;79.41;101453.16;5070818;28;20053;-76
2021/01/03 07:16:45;;;;;;;59.83;32.40;;;6.70;99.90;;;6.68;80.02;101515.88;5070176;28;20056;-76
2021/01/03 07:19:24;;;;;;;54.23;30.67;;;6.60;99.90;;;6.69;79.67;101502.75;5072087;28;20040;-75
2021/01/03 07:21:52;;;;;;;57.30;30.97;;;6.70;99.90;;;6.86;79.62;101521.50;5071923;28;20490;-75
2021/01/03 07:24:39;;;;;;;55.93;31.43;;;6.70;99.90;;;5.97;79.57;101368.06;5071731;28;20056;-76
2021/01/03 07:27:36;;;;;;;59.37;31.30;;;6.80;99.90;;;6.96;79.00;101524.34;5073216;28;20052;-76
2021/01/03 07:30:33;;;;;;;54.10;30.10;;;6.90;99.90;;;6.96;79.20;101533.97;5076221;28;20079;-75
2021/01/03 07:33:16;;;;;;;50.83;29.97;;;6.90;99.90;;;7.01;79.01;101527.06;5075678;28;20052;-74
2021/01/03 07:35:44;;;;;;;54.93;30.40;;;6.90;99.90;;;6.92;78.95;101533.03;5075757;28;20444;-75
2021/01/03 07:38:33;;;;;;;53.93;29.97;;;6.90;99.90;;;6.99;79.15;101528.75;5075915;28;20043;-76
2021/01/03 07:41:07;;;;;;;49.77;30.10;;;6.90;99.90;;;7.05;78.65;101528.91;5075720;28;20448;-75
2021/01/03 07:44:00;;;;;;;53.83;30.30;;;6.90;99.90;;;7.05;78.67;101536.78;5075873;28;20044;-76
2021/01/03 07:46:49;;;;;;;54.50;30.43;;;6.90;99.90;;;7.06;78.39;101539.47;5074517;28;20044;-76
2021/01/03 07:49:31;;;;;;;53.63;29.53;;;7.00;99.90;;;6.84;78.39;101502.16;5075711;28;20113;-75
2021/01/03 07:52:01;;;;;;;55.27;31.03;;;7.00;99.90;;;7.10;78.25;101543.91;5075702;28;20052;-75
2021/01/03 07:54:29;;;;;;;55.45;30.23;;;7.00;99.90;;;7.13;78.33;101549.25;5075673;28;20052;-75
2021/01/03 07:56:57;;;;;;;50.67;29.77;;;7.00;99.90;;;7.15;78.12;101544.00;5075199;28;20125;-76
2021/01/03 07:59:24;;;;;;;52.20;29.33;;;7.00;99.90;;;7.04;78.37;101527.13;5075449;28;20505;-75
2021/01/03 08:01:53;;;;;;;53.13;30.47;;;7.10;99.90;;;7.18;78.17;101559.88;5075435;28;20041;-76
2021/01/03 08:04:29;;;;;;;54.47;31.57;;;7.10;99.90;;;7.15;78.22;101557.16;5075534;28;20044;-75
2021/01/03 08:07:06;;;;;;;58.60;32.37;;;7.10;99.90;;;7.10;77.98;101561.47;5074131;28;20052;-75
2021/01/03 08:09:33;;;;;;;57.50;31.90;;;7.10;99.90;;;7.12;78.25;101570.28;5075589;28;20394;-74
2021/01/03 08:12:10;;;;;;;54.67;32.10;;;7.00;99.90;;;7.11;78.04;101565.84;5074927;28;20064;-75
2021/01/03 08:14:41;;;;;;;57.53;31.87;;;7.00;99.90;;;7.07;78.15;101564.91;5075320;28;20041;-72
2021/01/03 08:17:11;;;;;;;54.80;32.10;;;7.00;99.90;;;7.20;78.06;101574.81;5075158;28;20757;-76
2021/01/03 08:19:39;;;;;;;59.50;33.67;;;7.10;99.90;;;7.07;78.06;101549.13;5074558;28;20049;-81
2021/01/03 08:22:07;;;;;;;56.50;31.73;;;7.10;99.90;;;7.17;78.03;101571.25;5074734;28;20513;-78
2021/01/03 08:24:35;;;;;;;59.17;34.20;;;7.10;99.90;;;7.05;78.04;101552.56;5073401;28;20476;-77
2021/01/03 08:27:12;;;;;;;61.47;32.90;;;7.10;99.90;;;7.23;77.77;101574.00;5074997;28;20386;-76
2021/01/03 08:29:46;;;;;;;63.00;34.53;;;7.10;99.90;;;7.10;77.86;101564.09;5075005;28;20066;-76
2021/01/03 08:32:19;;;;;;;69.33;36.57;;;7.10;99.90;;;6.95;77.97;101553.25;5074772;28;20052;-75
2021/01/03 08:34:46;;;;;;;62.63;34.37;;;7.00;99.90;;;7.16;78.03;101582.63;5074623;28;20398;-72
2021/01/03 08:37:21;;;;;;;65.10;35.43;;;7.00;99.90;;;7.16;77.89;101582.63;5074076;28;20529;-72
2021/01/03 08:39:51;;;;;;;68.47;36.70;;;7.00;99.90;;;7.19;77.93;101586.22;5073555;28;20056;-72
2021/01/03 08:42:26;;;;;;;64.97;35.97;;;7.10;99.90;;;7.20;77.57;101584.47;5074669;28;20094;-75
2021/01/03 08:44:58;;;;;;;67.33;36.87;;;7.00;99.90;;;7.09;77.67;101573.72;5074658;28;20764;-77
2021/01/03 08:47:33;;;;;;;69.63;36.20;;;7.10;99.90;;;7.16;77.56;101587.91;5074167;28;20048;-76
2021/01/03 08:50:09;;;;;;;72.40;38.20;;;7.10;99.90;;;7.15;77.86;101588.72;5074723;28;20109;-76
2021/01/03 08:52:38;;;;;;;67.23;36.03;;;7.00;99.90;;;7.21;77.91;101591.50;5074317;28;20049;-76
2021/01/03 08:55:13;;;;;;;70.53;37.27;;;7.10;99.90;;;7.07;77.55;101585.94;5074533;28;20052;-76
2021/01/03 08:57:42;;;;;;;70.73;36.27;;;7.00;99.90;;;7.02;77.92;101576.19;5074230;28;20052;-79
2021/01/03 09:00:21;;;;;;;71.50;37.50;;;7.00;99.90;;;7.20;77.97;101587.09;5074478;28;20367;-75
2021/01/03 09:02:49;;;;;;;78.40;38.63;;;7.10;99.90;;;6.97;77.92;101551.50;5074278;28;20110;-76
2021/01/03 09:05:19;;;;;;;72.33;37.93;;;7.10;99.90;;;7.18;77.77;101580.94;5073846;28;20048;-81
2021/01/03 09:07:52;;;;;;;72.28;37.95;;;7.10;99.90;;;7.28;77.72;101588.13;5074042;28;20052;-74
2021/01/03 09:10:31;;;;;;;72.93;37.60;;;7.20;99.90;;;7.32;77.33;101595.22;5073952;28;20101;-76
2021/01/03 09:13:18;;;;;;;72.10;37.87;;;7.20;99.90;;;7.27;77.63;101592.53;5073852;28;20053;-75
2021/01/03 09:16:07;;;;;;;71.43;37.37;;;7.20;99.90;;;7.25;77.20;101585.44;5072569;28;20080;-78
2021/01/03 09:18:42;;;;;;;67.40;36.60;;;7.20;99.90;;;7.38;77.29;101594.44;5074103;28;20044;-74
2021/01/03 09:21:12;;;;;;;69.67;36.30;;;7.30;99.90;;;7.41;77.36;101605.97;5073761;28;20049;-74
2021/01/03 09:23:42;;;;;;;68.57;36.33;;;7.30;99.90;;;7.43;77.23;101609.50;5073405;28;20056;-76
2021/01/03 09:26:11;;;;;;;63.50;34.90;;;7.30;99.90;;;7.24;77.15;101592.44;5074006;28;20048;-74
2021/01/03 09:28:41;;;;;;;63.53;35.30;;;7.30;99.90;;;7.43;76.81;101616.50;5073644;28;20056;-74
2021/01/03 09:31:15;;;;;;;68.30;35.97;;;7.30;99.90;;;7.33;77.24;101607.53;5073731;28;20044;-73
2021/01/03 09:33:49;;;;;;;68.13;36.47;;;7.30;99.90;;;7.40;76.98;101621.69;5073268;28;20044;-78
2021/01/03 09:36:34;;;;;;;65.80;35.77;;;7.30;99.90;;;7.38;77.41;101629.56;5073322;28;20041;-69
2021/01/03 09:39:46;;;;;;;70.33;37.10;;;7.30;99.90;;;7.39;77.17;101620.81;5073672;28;20097;-77
2021/01/03 09:42:39;;;;;;;67.70;37.50;;;7.30;99.90;;;7.38;77.63;101624.28;5073321;28;20040;-80
2021/01/03 09:45:38;;;;;;;67.40;37.53;;;7.20;99.90;;;6.17;77.22;101416.66;5073175;28;20049;-81
2021/01/03 09:48:07;;;;;;;75.83;38.90;;;7.20;99.90;;;7.29;77.59;101618.84;5072589;28;20048;-79
2021/01/03 09:50:46;;;;;;;73.00;39.53;;;7.20;99.90;;;7.37;77.70;101632.16;5073359;28;20048;-72
2021/01/03 09:53:30;;;;;;;72.18;37.90;;;7.30;99.90;;;7.19;77.08;101586.22;5073172;28;20135;-75
2021/01/03 09:56:13;;;;;;;67.97;36.73;;;7.30;99.90;;;7.18;76.95;101580.94;5073047;28;20052;-74
2021/01/03 09:58:44;;;;;;;70.23;37.17;;;7.30;99.90;;;7.39;76.98;101618.19;5073065;28;20056;-79
2021/01/03 10:01:32;;;;;;;72.25;37.63;;;7.30;99.90;;;7.30;77.17;101618.88;5073123;28;20194;-77
2021/01/03 10:04:17;;;;;;;68.67;38.50;;;7.30;99.90;;;5.06;76.99;101235.63;5073164;28;20055;-74
2021/01/03 10:06:47;;;;;;;72.13;39.63;;;7.20;99.90;;;7.33;77.26;101639.13;5072860;28;20098;-75
2021/01/03 10:09:19;;;;;;;78.40;39.28;;;7.20;99.90;;;7.22;76.95;101632.72;5073023;28;20086;-75
2021/01/03 10:11:48;;;;;;;71.93;39.10;;;7.20;99.90;;;7.19;77.38;101628.31;5072411;28;20463;-76
2021/01/03 10:14:29;;;;;;;77.63;40.47;;;7.10;99.90;;;7.19;77.32;101632.66;5072821;28;20044;-76
2021/01/03 10:17:15;;;;;;;80.33;40.10;;;7.10;99.90;;;6.87;77.43;101607.41;5072721;28;20097;-77
2021/01/03 10:19:43;;;;;;;77.10;41.47;;;7.10;99.90;;;7.12;77.49;101636.91;5071403;28;20056;-77
2021/01/03 10:22:31;;;;;;;77.20;40.13;;;7.00;99.90;;;7.08;77.59;101639.44;5072762;28;20040;-77
2021/01/03 10:25:01;;;;;;;79.37;40.20;;;7.10;99.90;;;7.13;77.50;101636.06;5072768;28;20410;-75
2021/01/03 10:27:29;;;;;;;74.47;40.90;;;7.00;99.90;;;7.05;77.35;101634.09;5072434;28;20477;-70
2021/01/03 10:29:56;;;;;;;78.13;39.73;;;7.00;99.90;;;6.97;77.33;101633.03;5072594;28;20405;-73
2021/01/03 10:32:24;;;;;;;72.17;39.87;;;6.90;99.90;;;7.01;77.18;101637.50;5072423;28;20049;-73
2021/01/03 10:34:52;;;;;;;72.83;38.70;;;6.90;99.90;;;6.91;76.95;101617.16;5071138;28;20075;-71
2021/01/03 10:37:19;;;;;;;69.70;38.23;;;6.90;99.90;;;6.73;76.58;101609.75;5072117;28;20149;-70
2021/01/03 10:39:47;;;;;;;69.57;38.20;;;6.90;99.90;;;6.92;76.39;101626.81;5072408;28;20120;-71
2021/01/03 10:42:15;;;;;;;70.57;38.30;;;6.90;99.90;;;6.88;76.62;101609.19;5072054;28;20044;-77